sensor_id;sensor_type;location;lat;lon;timestamp;temperature;humidity
20284;DHT22;10301;50.832;4.080;2023-04-22T00:00:26;8.80;99.90
20284;DHT22;10301;50.832;4.080;2023-04-22T00:02:53;8.80;99.90
20284;DHT22;10301;50.832;4.080;2023-04-22T00:05:20;8.70;99.90
20284;DHT22;10301;50.832;4.080;2023-04-22T00:07:46;8.90;99.90
20284;DHT22;10301;50.832;4.080;2023-04-22T00:10:12;9.00;99.40
20284;DHT22;10301;50.832;4.080;2023-04-22T00:12:37;9.00;97.80
20284;DHT22;10301;50.832;4.080;2023-04-22T00:15:04;8.70;97.00
20284;DHT22;10301;50.832;4.080;2023-04-22T00:17:31;8.80;98.40
20284;DHT22;10301;50.832;4.080;2023-04-22T00:19:56;8.90;98.00
20284;DHT22;10301;50.832;4.080;2023-04-22T00:22:22;8.90;97.90
20284;DHT22;10301;50.832;4.080;2023-04-22T00:24:48;9.20;96.30
20284;DHT22;10301;50.832;4.080;2023-04-22T00:27:13;9.20;93.40
20284;DHT22;10301;50.832;4.080;2023-04-22T00:29:39;9.20;90.60
20284;DHT22;10301;50.832;4.080;2023-04-22T00:32:05;9.30;88.10
20284;DHT22;10301;50.832;4.080;2023-04-22T00:34:31;9.30;80.20
20284;DHT22;10301;50.832;4.080;2023-04-22T00:36:56;9.30;71.90
20284;DHT22;10301;50.832;4.080;2023-04-22T00:39:22;9.30;64.70
20284;DHT22;10301;50.832;4.080;2023-04-22T00:41:48;9.20;58.40
20284;DHT22;10301;50.832;4.080;2023-04-22T00:44:14;9.00;62.30
20284;DHT22;10301;50.832;4.080;2023-04-22T00:46:40;8.90;73.40
20284;DHT22;10301;50.832;4.080;2023-04-22T00:49:06;8.80;76.40
20284;DHT22;10301;50.832;4.080;2023-04-22T00:51:32;8.80;83.70
20284;DHT22;10301;50.832;4.080;2023-04-22T00:53:58;8.90;80.80
20284;DHT22;10301;50.832;4.080;2023-04-22T00:56:27;8.90;75.30
20284;DHT22;10301;50.832;4.080;2023-04-22T00:58:53;8.80;76.10
20284;DHT22;10301;50.832;4.080;2023-04-22T01:01:19;8.90;78.10
20284;DHT22;10301;50.832;4.080;2023-04-22T01:03:46;8.70;76.60
20284;DHT22;10301;50.832;4.080;2023-04-22T01:06:12;8.50;87.50
20284;DHT22;10301;50.832;4.080;2023-04-22T01:08:39;8.30;91.10
20284;DHT22;10301;50.832;4.080;2023-04-22T01:11:05;8.30;93.40
20284;DHT22;10301;50.832;4.080;2023-04-22T01:13:31;8.30;94.30
20284;DHT22;10301;50.832;4.080;2023-04-22T01:15:57;8.20;94.50
20284;DHT22;10301;50.832;4.080;2023-04-22T01:18:25;8.40;96.30
20284;DHT22;10301;50.832;4.080;2023-04-22T01:20:51;8.50;95.50
20284;DHT22;10301;50.832;4.080;2023-04-22T01:23:19;8.60;93.80
20284;DHT22;10301;50.832;4.080;2023-04-22T01:25:45;8.50;91.90
20284;DHT22;10301;50.832;4.080;2023-04-22T01:28:12;8.50;92.30
20284;DHT22;10301;50.832;4.080;2023-04-22T01:30:38;8.40;91.70
20284;DHT22;10301;50.832;4.080;2023-04-22T01:33:05;8.40;92.60
20284;DHT22;10301;50.832;4.080;2023-04-22T01:35:31;8.20;91.60
20284;DHT22;10301;50.832;4.080;2023-04-22T01:38:02;8.20;93.50
20284;DHT22;10301;50.832;4.080;2023-04-22T01:40:30;8.30;95.50
20284;DHT22;10301;50.832;4.080;2023-04-22T01:43:00;8.40;95.40
20284;DHT22;10301;50.832;4.080;2023-04-22T01:45:26;8.30;93.50
20284;DHT22;10301;50.832;4.080;2023-04-22T01:47:52;8.10;94.90
20284;DHT22;10301;50.832;4.080;2023-04-22T01:50:19;8.10;96.30
20284;DHT22;10301;50.832;4.080;2023-04-22T01:52:44;8.40;96.90
20284;DHT22;10301;50.832;4.080;2023-04-22T01:55:10;8.60;95.40
20284;DHT22;10301;50.832;4.080;2023-04-22T01:57:36;8.70;92.20
20284;DHT22;10301;50.832;4.080;2023-04-22T02:00:02;8.50;90.00
20284;DHT22;10301;50.832;4.080;2023-04-22T02:02:30;8.40;89.80
20284;DHT22;10301;50.832;4.080;2023-04-22T02:04:55;8.40;89.50
20284;DHT22;10301;50.832;4.080;2023-04-22T02:07:21;8.30;88.10
20284;DHT22;10301;50.832;4.080;2023-04-22T02:09:48;8.20;89.70
20284;DHT22;10301;50.832;4.080;2023-04-22T02:12:14;8.20;90.70
20284;DHT22;10301;50.832;4.080;2023-04-22T02:14:39;8.30;91.50
20284;DHT22;10301;50.832;4.080;2023-04-22T02:17:05;8.30;91.10
20284;DHT22;10301;50.832;4.080;2023-04-22T02:19:31;8.40;91.30
20284;DHT22;10301;50.832;4.080;2023-04-22T02:21:56;8.60;86.00
20284;DHT22;10301;50.832;4.080;2023-04-22T02:24:22;8.70;80.20
20284;DHT22;10301;50.832;4.080;2023-04-22T02:26:48;8.70;76.40
20284;DHT22;10301;50.832;4.080;2023-04-22T02:29:14;8.70;72.30
20284;DHT22;10301;50.832;4.080;2023-04-22T02:31:40;8.80;71.40
20284;DHT22;10301;50.832;4.080;2023-04-22T02:34:06;8.50;67.90
20284;DHT22;10301;50.832;4.080;2023-04-22T02:36:32;8.30;79.00
20284;DHT22;10301;50.832;4.080;2023-04-22T02:39:02;8.40;81.70
20284;DHT22;10301;50.832;4.080;2023-04-22T02:41:28;8.30;86.50
20284;DHT22;10301;50.832;4.080;2023-04-22T02:43:54;8.30;88.50
20284;DHT22;10301;50.832;4.080;2023-04-22T02:46:20;8.30;92.10
20284;DHT22;10301;50.832;4.080;2023-04-22T02:48:46;8.50;91.70
20284;DHT22;10301;50.832;4.080;2023-04-22T02:51:11;8.60;87.80
20284;DHT22;10301;50.832;4.080;2023-04-22T02:53:37;8.70;86.40
20284;DHT22;10301;50.832;4.080;2023-04-22T02:56:03;8.40;86.80
20284;DHT22;10301;50.832;4.080;2023-04-22T02:58:30;8.40;90.60
20284;DHT22;10301;50.832;4.080;2023-04-22T03:00:55;8.50;92.10
20284;DHT22;10301;50.832;4.080;2023-04-22T03:03:22;8.60;90.90
20284;DHT22;10301;50.832;4.080;2023-04-22T03:05:48;8.60;91.00
20284;DHT22;10301;50.832;4.080;2023-04-22T03:08:13;8.50;90.40
20284;DHT22;10301;50.832;4.080;2023-04-22T03:10:39;8.60;90.80
20284;DHT22;10301;50.832;4.080;2023-04-22T03:13:05;8.80;87.60
20284;DHT22;10301;50.832;4.080;2023-04-22T03:15:30;8.80;76.70
20284;DHT22;10301;50.832;4.080;2023-04-22T03:17:56;8.80;70.10
20284;DHT22;10301;50.832;4.080;2023-04-22T03:20:22;8.60;65.00
20284;DHT22;10301;50.832;4.080;2023-04-22T03:22:47;8.50;73.00
20284;DHT22;10301;50.832;4.080;2023-04-22T03:25:13;8.60;75.90
20284;DHT22;10301;50.832;4.080;2023-04-22T03:27:39;8.60;75.00
20284;DHT22;10301;50.832;4.080;2023-04-22T03:30:06;8.70;72.00
20284;DHT22;10301;50.832;4.080;2023-04-22T03:32:31;8.80;67.20
20284;DHT22;10301;50.832;4.080;2023-04-22T03:34:57;8.80;58.80
20284;DHT22;10301;50.832;4.080;2023-04-22T03:37:23;8.80;57.30
20284;DHT22;10301;50.832;4.080;2023-04-22T03:39:49;8.70;54.10
20284;DHT22;10301;50.832;4.080;2023-04-22T03:42:14;8.70;47.30
20284;DHT22;10301;50.832;4.080;2023-04-22T03:44:40;8.60;48.50
20284;DHT22;10301;50.832;4.080;2023-04-22T03:47:06;8.50;50.30
20284;DHT22;10301;50.832;4.080;2023-04-22T03:49:32;8.20;57.90
20284;DHT22;10301;50.832;4.080;2023-04-22T03:51:57;8.30;63.50
20284;DHT22;10301;50.832;4.080;2023-04-22T03:54:24;8.10;67.10
20284;DHT22;10301;50.832;4.080;2023-04-22T03:56:49;8.10;76.70
20284;DHT22;10301;50.832;4.080;2023-04-22T03:59:16;8.10;81.50
20284;DHT22;10301;50.832;4.080;2023-04-22T04:01:42;8.40;82.00
20284;DHT22;10301;50.832;4.080;2023-04-22T04:04:07;8.40;73.10
20284;DHT22;10301;50.832;4.080;2023-04-22T04:06:33;8.40;73.00
20284;DHT22;10301;50.832;4.080;2023-04-22T04:08:59;8.50;73.10
20284;DHT22;10301;50.832;4.080;2023-04-22T04:11:26;8.20;76.60
20284;DHT22;10301;50.832;4.080;2023-04-22T04:13:51;8.30;81.90
20284;DHT22;10301;50.832;4.080;2023-04-22T04:16:17;8.40;77.60
20284;DHT22;10301;50.832;4.080;2023-04-22T04:18:43;8.30;74.90
20284;DHT22;10301;50.832;4.080;2023-04-22T04:21:08;8.00;83.20
20284;DHT22;10301;50.832;4.080;2023-04-22T04:23:34;8.00;90.30
20284;DHT22;10301;50.832;4.080;2023-04-22T04:26:00;8.00;92.40
20284;DHT22;10301;50.832;4.080;2023-04-22T04:28:28;8.10;94.40
20284;DHT22;10301;50.832;4.080;2023-04-22T04:31:00;8.20;93.80
20284;DHT22;10301;50.832;4.080;2023-04-22T04:33:28;8.40;93.40
20284;DHT22;10301;50.832;4.080;2023-04-22T04:35:53;8.50;90.40
20284;DHT22;10301;50.832;4.080;2023-04-22T04:38:19;8.40;89.30
20284;DHT22;10301;50.832;4.080;2023-04-22T04:40:45;8.40;91.20
20284;DHT22;10301;50.832;4.080;2023-04-22T04:43:10;8.50;90.40
20284;DHT22;10301;50.832;4.080;2023-04-22T04:45:37;8.50;90.10
20284;DHT22;10301;50.832;4.080;2023-04-22T04:48:04;8.40;89.80
20284;DHT22;10301;50.832;4.080;2023-04-22T04:50:33;8.30;91.50
20284;DHT22;10301;50.832;4.080;2023-04-22T04:52:58;8.30;92.60
20284;DHT22;10301;50.832;4.080;2023-04-22T04:55:24;8.30;95.00
20284;DHT22;10301;50.832;4.080;2023-04-22T04:57:50;8.40;95.30
20284;DHT22;10301;50.832;4.080;2023-04-22T05:00:16;8.30;94.90
20284;DHT22;10301;50.832;4.080;2023-04-22T05:02:42;8.50;96.80
20284;DHT22;10301;50.832;4.080;2023-04-22T05:05:08;8.60;96.30
20284;DHT22;10301;50.832;4.080;2023-04-22T05:07:34;8.70;94.00
20284;DHT22;10301;50.832;4.080;2023-04-22T05:09:59;8.80;93.10
20284;DHT22;10301;50.832;4.080;2023-04-22T05:12:25;8.80;90.90
20284;DHT22;10301;50.832;4.080;2023-04-22T05:14:51;8.80;89.60
20284;DHT22;10301;50.832;4.080;2023-04-22T05:17:18;8.90;88.00
20284;DHT22;10301;50.832;4.080;2023-04-22T05:19:44;9.10;84.70
20284;DHT22;10301;50.832;4.080;2023-04-22T05:22:09;9.20;78.90
20284;DHT22;10301;50.832;4.080;2023-04-22T05:24:35;9.30;66.10
20284;DHT22;10301;50.832;4.080;2023-04-22T05:27:01;9.40;57.20
20284;DHT22;10301;50.832;4.080;2023-04-22T05:29:27;9.50;50.50
20284;DHT22;10301;50.832;4.080;2023-04-22T05:31:52;9.50;46.70
20284;DHT22;10301;50.832;4.080;2023-04-22T05:34:18;9.50;48.20
20284;DHT22;10301;50.832;4.080;2023-04-22T05:36:44;9.50;47.80
20284;DHT22;10301;50.832;4.080;2023-04-22T05:39:10;9.60;47.50
20284;DHT22;10301;50.832;4.080;2023-04-22T05:41:35;9.50;42.30
20284;DHT22;10301;50.832;4.080;2023-04-22T05:44:01;9.50;48.00
20284;DHT22;10301;50.832;4.080;2023-04-22T05:46:26;9.60;47.60
20284;DHT22;10301;50.832;4.080;2023-04-22T05:48:52;9.60;47.70
20284;DHT22;10301;50.832;4.080;2023-04-22T05:51:20;9.70;50.10
20284;DHT22;10301;50.832;4.080;2023-04-22T05:53:46;9.80;48.40
20284;DHT22;10301;50.832;4.080;2023-04-22T05:56:11;9.90;45.70
20284;DHT22;10301;50.832;4.080;2023-04-22T05:58:37;9.80;44.90
20284;DHT22;10301;50.832;4.080;2023-04-22T06:01:03;9.60;46.90
20284;DHT22;10301;50.832;4.080;2023-04-22T06:03:29;9.80;58.80
20284;DHT22;10301;50.832;4.080;2023-04-22T06:05:54;10.00;59.80
20284;DHT22;10301;50.832;4.080;2023-04-22T06:08:20;10.20;57.60
20284;DHT22;10301;50.832;4.080;2023-04-22T06:10:46;10.50;50.50
20284;DHT22;10301;50.832;4.080;2023-04-22T06:13:11;10.70;32.40
20284;DHT22;10301;50.832;4.080;2023-04-22T06:15:37;10.80;30.00
20284;DHT22;10301;50.832;4.080;2023-04-22T06:18:03;11.00;29.60
20284;DHT22;10301;50.832;4.080;2023-04-22T06:20:28;11.00;30.70
20284;DHT22;10301;50.832;4.080;2023-04-22T06:22:57;10.90;34.70
20284;DHT22;10301;50.832;4.080;2023-04-22T06:25:23;11.00;30.00
20284;DHT22;10301;50.832;4.080;2023-04-22T06:27:48;10.60;23.80
20284;DHT22;10301;50.832;4.080;2023-04-22T06:30:14;10.80;42.10
20284;DHT22;10301;50.832;4.080;2023-04-22T06:32:40;11.00;38.70
20284;DHT22;10301;50.832;4.080;2023-04-22T06:35:06;11.00;29.20
20284;DHT22;10301;50.832;4.080;2023-04-22T06:37:32;11.10;29.50
20284;DHT22;10301;50.832;4.080;2023-04-22T06:39:57;11.30;24.50
20284;DHT22;10301;50.832;4.080;2023-04-22T06:42:23;11.20;9.40
20284;DHT22;10301;50.832;4.080;2023-04-22T06:44:49;11.40;18.20
20284;DHT22;10301;50.832;4.080;2023-04-22T06:47:14;11.80;13.90
20284;DHT22;10301;50.832;4.080;2023-04-22T06:49:40;11.80;1.00
20284;DHT22;10301;50.832;4.080;2023-04-22T06:52:07;11.60;1.00
20284;DHT22;10301;50.832;4.080;2023-04-22T06:54:33;11.80;1.00
20284;DHT22;10301;50.832;4.080;2023-04-22T06:56:59;12.10;1.00
20284;DHT22;10301;50.832;4.080;2023-04-22T06:59:24;12.10;1.00
20284;DHT22;10301;50.832;4.080;2023-04-22T07:01:50;12.10;1.00
20284;DHT22;10301;50.832;4.080;2023-04-22T07:04:16;12.30;1.00
20284;DHT22;10301;50.832;4.080;2023-04-22T07:06:42;12.60;1.00
20284;DHT22;10301;50.832;4.080;2023-04-22T07:09:08;12.60;1.00
20284;DHT22;10301;50.832;4.080;2023-04-22T07:11:34;12.50;1.00
20284;DHT22;10301;50.832;4.080;2023-04-22T07:13:59;12.80;1.00
20284;DHT22;10301;50.832;4.080;2023-04-22T07:16:25;12.60;1.00
20284;DHT22;10301;50.832;4.080;2023-04-22T07:18:51;12.30;1.00
20284;DHT22;10301;50.832;4.080;2023-04-22T07:21:17;12.10;1.00
20284;DHT22;10301;50.832;4.080;2023-04-22T07:23:42;11.80;1.00
20284;DHT22;10301;50.832;4.080;2023-04-22T07:26:08;11.70;1.00
20284;DHT22;10301;50.832;4.080;2023-04-22T07:28:34;11.20;1.00
20284;DHT22;10301;50.832;4.080;2023-04-22T07:30:59;11.10;17.30
20284;DHT22;10301;50.832;4.080;2023-04-22T07:33:25;11.30;18.20
20284;DHT22;10301;50.832;4.080;2023-04-22T07:35:51;11.80;1.00
20284;DHT22;10301;50.832;4.080;2023-04-22T07:38:16;12.30;1.00
20284;DHT22;10301;50.832;4.080;2023-04-22T07:40:42;12.70;1.00
20284;DHT22;10301;50.832;4.080;2023-04-22T07:43:08;13.10;1.00
20284;DHT22;10301;50.832;4.080;2023-04-22T07:45:33;13.30;1.00
20284;DHT22;10301;50.832;4.080;2023-04-22T07:47:59;13.30;1.00
20284;DHT22;10301;50.832;4.080;2023-04-22T07:50:25;13.20;1.00
20284;DHT22;10301;50.832;4.080;2023-04-22T07:52:50;13.80;1.00
20284;DHT22;10301;50.832;4.080;2023-04-22T07:55:16;14.40;1.00
20284;DHT22;10301;50.832;4.080;2023-04-22T07:57:42;14.50;1.00
20284;DHT22;10301;50.832;4.080;2023-04-22T08:00:09;14.50;1.00
20284;DHT22;10301;50.832;4.080;2023-04-22T08:02:35;15.00;1.00
20284;DHT22;10301;50.832;4.080;2023-04-22T08:05:00;15.20;1.00
20284;DHT22;10301;50.832;4.080;2023-04-22T08:07:27;14.80;1.00
20284;DHT22;10301;50.832;4.080;2023-04-22T08:09:52;14.50;1.00
20284;DHT22;10301;50.832;4.080;2023-04-22T08:12:20;14.60;1.00
20284;DHT22;10301;50.832;4.080;2023-04-22T08:14:46;14.30;1.00
20284;DHT22;10301;50.832;4.080;2023-04-22T08:17:12;14.70;1.00
20284;DHT22;10301;50.832;4.080;2023-04-22T08:19:37;15.00;1.00
20284;DHT22;10301;50.832;4.080;2023-04-22T08:22:03;15.40;1.00
20284;DHT22;10301;50.832;4.080;2023-04-22T08:24:29;15.70;1.00
20284;DHT22;10301;50.832;4.080;2023-04-22T08:26:54;15.90;99.90
20284;DHT22;10301;50.832;4.080;2023-04-22T08:29:21;16.10;99.90
20284;DHT22;10301;50.832;4.080;2023-04-22T08:31:46;16.60;30.50
20284;DHT22;10301;50.832;4.080;2023-04-22T08:34:12;16.50;1.00
20284;DHT22;10301;50.832;4.080;2023-04-22T08:36:38;16.80;1.00
20284;DHT22;10301;50.832;4.080;2023-04-22T08:39:03;17.00;1.00
20284;DHT22;10301;50.832;4.080;2023-04-22T08:41:33;17.10;1.00
20284;DHT22;10301;50.832;4.080;2023-04-22T08:43:59;17.00;99.90
20284;DHT22;10301;50.832;4.080;2023-04-22T08:46:26;17.00;29.40
20284;DHT22;10301;50.832;4.080;2023-04-22T08:48:53;16.70;99.90
20284;DHT22;10301;50.832;4.080;2023-04-22T08:51:20;16.20;1.00
20284;DHT22;10301;50.832;4.080;2023-04-22T08:53:46;16.20;1.00
20284;DHT22;10301;50.832;4.080;2023-04-22T08:56:12;16.10;1.00
20284;DHT22;10301;50.832;4.080;2023-04-22T08:58:40;16.00;1.00
20284;DHT22;10301;50.832;4.080;2023-04-22T09:01:07;15.70;1.00
20284;DHT22;10301;50.832;4.080;2023-04-22T09:03:34;15.60;68.90
20284;DHT22;10301;50.832;4.080;2023-04-22T09:06:05;15.40;99.90
20284;DHT22;10301;50.832;4.080;2023-04-22T09:08:34;15.30;99.90
20284;DHT22;10301;50.832;4.080;2023-04-22T09:11:00;15.30;99.90
20284;DHT22;10301;50.832;4.080;2023-04-22T09:13:27;15.50;99.90
20284;DHT22;10301;50.832;4.080;2023-04-22T09:15:52;15.30;1.00
20284;DHT22;10301;50.832;4.080;2023-04-22T09:18:19;15.00;1.00
20284;DHT22;10301;50.832;4.080;2023-04-22T09:20:48;14.80;1.00
20284;DHT22;10301;50.832;4.080;2023-04-22T09:23:14;14.70;1.00
20284;DHT22;10301;50.832;4.080;2023-04-22T09:25:40;14.60;1.00
20284;DHT22;10301;50.832;4.080;2023-04-22T09:28:11;14.30;1.00
20284;DHT22;10301;50.832;4.080;2023-04-22T09:30:36;14.10;1.00
20284;DHT22;10301;50.832;4.080;2023-04-22T09:33:04;14.00;1.00
20284;DHT22;10301;50.832;4.080;2023-04-22T09:35:39;13.90;1.00
20284;DHT22;10301;50.832;4.080;2023-04-22T09:38:07;13.80;1.00
20284;DHT22;10301;50.832;4.080;2023-04-22T09:40:33;13.70;1.00
20284;DHT22;10301;50.832;4.080;2023-04-22T09:43:06;13.50;1.00
20284;DHT22;10301;50.832;4.080;2023-04-22T09:45:37;13.40;1.00
20284;DHT22;10301;50.832;4.080;2023-04-22T09:48:08;13.40;1.00
20284;DHT22;10301;50.832;4.080;2023-04-22T09:50:34;13.50;1.00
20284;DHT22;10301;50.832;4.080;2023-04-22T09:53:08;13.40;1.00
20284;DHT22;10301;50.832;4.080;2023-04-22T09:55:39;13.30;1.00
20284;DHT22;10301;50.832;4.080;2023-04-22T09:58:11;13.40;1.00
20284;DHT22;10301;50.832;4.080;2023-04-22T10:00:53;13.40;1.00
20284;DHT22;10301;50.832;4.080;2023-04-22T10:03:19;13.00;8.60
20284;DHT22;10301;50.832;4.080;2023-04-22T10:05:45;13.20;9.90
20284;DHT22;10301;50.832;4.080;2023-04-22T10:08:12;13.10;17.30
20284;DHT22;10301;50.832;4.080;2023-04-22T10:10:39;13.30;10.40
20284;DHT22;10301;50.832;4.080;2023-04-22T10:13:05;13.30;2.70
20284;DHT22;10301;50.832;4.080;2023-04-22T10:15:34;13.30;3.90
20284;DHT22;10301;50.832;4.080;2023-04-22T10:18:06;13.20;11.30
20284;DHT22;10301;50.832;4.080;2023-04-22T10:20:35;13.10;19.70
20284;DHT22;10301;50.832;4.080;2023-04-22T10:23:11;13.20;12.90
20284;DHT22;10301;50.832;4.080;2023-04-22T10:25:38;13.10;17.50
20284;DHT22;10301;50.832;4.080;2023-04-22T10:28:06;13.10;23.50
20284;DHT22;10301;50.832;4.080;2023-04-22T10:30:36;13.30;25.30
20284;DHT22;10301;50.832;4.080;2023-04-22T10:33:35;13.40;26.80
20284;DHT22;10301;50.832;4.080;2023-04-22T10:38:40;13.50;1.00
20284;DHT22;10301;50.832;4.080;2023-04-22T10:41:13;13.40;1.00
20284;DHT22;10301;50.832;4.080;2023-04-22T10:43:45;13.50;1.60
20284;DHT22;10301;50.832;4.080;2023-04-22T10:48:56;13.70;5.60
20284;DHT22;10301;50.832;4.080;2023-04-22T10:54:04;13.80;1.00
20284;DHT22;10301;50.832;4.080;2023-04-22T10:56:30;13.70;1.00
20284;DHT22;10301;50.832;4.080;2023-04-22T10:58:56;13.60;1.00
20284;DHT22;10301;50.832;4.080;2023-04-22T11:01:22;13.60;1.00
20284;DHT22;10301;50.832;4.080;2023-04-22T11:03:50;13.60;1.00
20284;DHT22;10301;50.832;4.080;2023-04-22T11:06:18;13.70;1.00
20284;DHT22;10301;50.832;4.080;2023-04-22T11:08:48;13.70;1.00
20284;DHT22;10301;50.832;4.080;2023-04-22T11:11:18;13.60;1.00
20284;DHT22;10301;50.832;4.080;2023-04-22T11:13:44;13.50;1.00
20284;DHT22;10301;50.832;4.080;2023-04-22T11:16:12;13.60;1.00
20284;DHT22;10301;50.832;4.080;2023-04-22T11:18:37;13.80;1.00
20284;DHT22;10301;50.832;4.080;2023-04-22T11:21:06;13.50;1.00
20284;DHT22;10301;50.832;4.080;2023-04-22T11:23:33;13.60;1.00
20284;DHT22;10301;50.832;4.080;2023-04-22T11:26:02;13.70;1.70
20284;DHT22;10301;50.832;4.080;2023-04-22T11:28:28;13.50;1.00
20284;DHT22;10301;50.832;4.080;2023-04-22T11:31:07;13.70;1.10
20284;DHT22;10301;50.832;4.080;2023-04-22T11:33:36;14.10;1.00
20284;DHT22;10301;50.832;4.080;2023-04-22T11:36:04;14.20;1.00
20284;DHT22;10301;50.832;4.080;2023-04-22T11:38:30;14.30;1.00
20284;DHT22;10301;50.832;4.080;2023-04-22T11:40:55;14.30;1.00
20284;DHT22;10301;50.832;4.080;2023-04-22T11:43:24;14.60;1.00
20284;DHT22;10301;50.832;4.080;2023-04-22T11:45:50;14.80;1.00
20284;DHT22;10301;50.832;4.080;2023-04-22T11:48:15;14.80;1.00
20284;DHT22;10301;50.832;4.080;2023-04-22T11:50:41;14.90;1.00
20284;DHT22;10301;50.832;4.080;2023-04-22T11:53:19;15.00;1.00
20284;DHT22;10301;50.832;4.080;2023-04-22T11:55:48;14.90;1.00
20284;DHT22;10301;50.832;4.080;2023-04-22T11:58:22;14.90;1.00
20284;DHT22;10301;50.832;4.080;2023-04-22T12:00:50;14.80;1.00
20284;DHT22;10301;50.832;4.080;2023-04-22T12:03:21;14.80;1.00
20284;DHT22;10301;50.832;4.080;2023-04-22T12:08:19;14.60;1.00
20284;DHT22;10301;50.832;4.080;2023-04-22T12:10:55;14.60;1.00
20284;DHT22;10301;50.832;4.080;2023-04-22T12:13:32;14.70;1.00
20284;DHT22;10301;50.832;4.080;2023-04-22T12:16:00;14.90;1.00
20284;DHT22;10301;50.832;4.080;2023-04-22T12:18:37;14.80;1.00
20284;DHT22;10301;50.832;4.080;2023-04-22T12:23:45;15.00;1.00
20284;DHT22;10301;50.832;4.080;2023-04-22T12:26:11;14.90;1.00
20284;DHT22;10301;50.832;4.080;2023-04-22T12:28:38;14.80;1.00
20284;DHT22;10301;50.832;4.080;2023-04-22T12:31:05;14.80;1.00
20284;DHT22;10301;50.832;4.080;2023-04-22T12:33:31;14.80;1.00
20284;DHT22;10301;50.832;4.080;2023-04-22T12:35:56;14.80;1.00
20284;DHT22;10301;50.832;4.080;2023-04-22T12:38:22;14.80;1.00
20284;DHT22;10301;50.832;4.080;2023-04-22T12:40:48;14.80;1.00
20284;DHT22;10301;50.832;4.080;2023-04-22T12:43:15;14.80;1.00
20284;DHT22;10301;50.832;4.080;2023-04-22T12:45:41;14.70;1.00
20284;DHT22;10301;50.832;4.080;2023-04-22T12:48:07;14.50;1.00
20284;DHT22;10301;50.832;4.080;2023-04-22T12:50:32;14.30;1.00
20284;DHT22;10301;50.832;4.080;2023-04-22T12:52:58;14.20;1.00
20284;DHT22;10301;50.832;4.080;2023-04-22T12:55:24;14.10;1.00
20284;DHT22;10301;50.832;4.080;2023-04-22T12:57:50;14.10;1.00
20284;DHT22;10301;50.832;4.080;2023-04-22T13:00:17;14.00;1.00
20284;DHT22;10301;50.832;4.080;2023-04-22T13:02:43;13.90;1.00
20284;DHT22;10301;50.832;4.080;2023-04-22T13:05:10;13.70;1.00
20284;DHT22;10301;50.832;4.080;2023-04-22T13:07:36;13.60;1.00
20284;DHT22;10301;50.832;4.080;2023-04-22T13:10:03;13.50;10.90
20284;DHT22;10301;50.832;4.080;2023-04-22T13:12:29;13.50;11.10
20284;DHT22;10301;50.832;4.080;2023-04-22T13:14:55;13.50;9.70
20284;DHT22;10301;50.832;4.080;2023-04-22T13:17:20;13.60;10.90
20284;DHT22;10301;50.832;4.080;2023-04-22T13:19:47;13.60;11.80
20284;DHT22;10301;50.832;4.080;2023-04-22T13:22:13;13.70;9.00
20284;DHT22;10301;50.832;4.080;2023-04-22T13:24:39;13.70;10.20
20284;DHT22;10301;50.832;4.080;2023-04-22T13:27:04;13.70;7.60
20284;DHT22;10301;50.832;4.080;2023-04-22T13:29:32;13.70;6.20
20284;DHT22;10301;50.832;4.080;2023-04-22T13:31:57;13.80;1.00
20284;DHT22;10301;50.832;4.080;2023-04-22T13:34:23;13.70;1.00
20284;DHT22;10301;50.832;4.080;2023-04-22T13:36:49;13.50;9.40
20284;DHT22;10301;50.832;4.080;2023-04-22T13:39:15;13.60;6.70
20284;DHT22;10301;50.832;4.080;2023-04-22T13:41:41;13.60;1.00
20284;DHT22;10301;50.832;4.080;2023-04-22T13:44:06;13.50;5.70
20284;DHT22;10301;50.832;4.080;2023-04-22T13:46:32;13.50;4.00
20284;DHT22;10301;50.832;4.080;2023-04-22T13:48:58;13.40;9.40
20284;DHT22;10301;50.832;4.080;2023-04-22T13:51:24;13.20;18.60
20284;DHT22;10301;50.832;4.080;2023-04-22T13:53:49;13.00;34.20
20284;DHT22;10301;50.832;4.080;2023-04-22T13:56:15;12.70;49.40
20284;DHT22;10301;50.832;4.080;2023-04-22T13:58:41;12.90;52.50
20284;DHT22;10301;50.832;4.080;2023-04-22T14:01:07;12.80;50.40
20284;DHT22;10301;50.832;4.080;2023-04-22T14:03:34;12.90;41.00
20284;DHT22;10301;50.832;4.080;2023-04-22T14:06:00;12.90;44.70
20284;DHT22;10301;50.832;4.080;2023-04-22T14:08:27;12.90;49.70
20284;DHT22;10301;50.832;4.080;2023-04-22T14:10:53;13.00;45.90
20284;DHT22;10301;50.832;4.080;2023-04-22T14:13:19;12.80;51.60
20284;DHT22;10301;50.832;4.080;2023-04-22T14:15:46;12.70;64.30
20284;DHT22;10301;50.832;4.080;2023-04-22T14:18:14;12.60;68.40
20284;DHT22;10301;50.832;4.080;2023-04-22T14:20:40;12.50;65.80
20284;DHT22;10301;50.832;4.080;2023-04-22T14:23:07;12.50;51.80
20284;DHT22;10301;50.832;4.080;2023-04-22T14:25:33;12.20;64.40
20284;DHT22;10301;50.832;4.080;2023-04-22T14:27:58;12.10;71.70
20284;DHT22;10301;50.832;4.080;2023-04-22T14:30:24;12.00;78.30
20284;DHT22;10301;50.832;4.080;2023-04-22T14:32:50;12.00;81.40
20284;DHT22;10301;50.832;4.080;2023-04-22T14:35:16;12.00;88.00
20284;DHT22;10301;50.832;4.080;2023-04-22T14:37:42;12.00;83.20
20284;DHT22;10301;50.832;4.080;2023-04-22T14:40:10;11.90;86.70
20284;DHT22;10301;50.832;4.080;2023-04-22T14:42:37;12.00;90.10
20284;DHT22;10301;50.832;4.080;2023-04-22T14:45:03;12.10;90.90
20284;DHT22;10301;50.832;4.080;2023-04-22T14:47:29;12.40;82.30
20284;DHT22;10301;50.832;4.080;2023-04-22T14:49:55;12.70;69.30
20284;DHT22;10301;50.832;4.080;2023-04-22T14:52:21;12.80;61.20
20284;DHT22;10301;50.832;4.080;2023-04-22T14:54:47;13.10;49.70
20284;DHT22;10301;50.832;4.080;2023-04-22T14:57:13;13.20;40.50
20284;DHT22;10301;50.832;4.080;2023-04-22T14:59:39;13.40;19.70
20284;DHT22;10301;50.832;4.080;2023-04-22T15:02:05;13.70;1.00
20284;DHT22;10301;50.832;4.080;2023-04-22T15:04:31;14.10;1.00
20284;DHT22;10301;50.832;4.080;2023-04-22T15:06:57;14.50;1.00
20284;DHT22;10301;50.832;4.080;2023-04-22T15:09:24;15.10;1.00
20284;DHT22;10301;50.832;4.080;2023-04-22T15:11:50;15.50;1.00
20284;DHT22;10301;50.832;4.080;2023-04-22T15:14:16;15.80;1.00
20284;DHT22;10301;50.832;4.080;2023-04-22T15:16:42;16.00;1.00
20284;DHT22;10301;50.832;4.080;2023-04-22T15:19:07;15.90;1.00
20284;DHT22;10301;50.832;4.080;2023-04-22T15:21:33;16.00;1.00
20284;DHT22;10301;50.832;4.080;2023-04-22T15:23:59;16.30;1.00
20284;DHT22;10301;50.832;4.080;2023-04-22T15:26:24;16.50;1.00
20284;DHT22;10301;50.832;4.080;2023-04-22T15:28:50;16.50;1.00
20284;DHT22;10301;50.832;4.080;2023-04-22T15:31:18;16.50;1.00
20284;DHT22;10301;50.832;4.080;2023-04-22T15:33:44;16.50;1.00
20284;DHT22;10301;50.832;4.080;2023-04-22T15:36:10;16.60;1.00
20284;DHT22;10301;50.832;4.080;2023-04-22T15:38:36;16.30;1.00
20284;DHT22;10301;50.832;4.080;2023-04-22T15:41:03;16.10;1.00
20284;DHT22;10301;50.832;4.080;2023-04-22T15:43:28;15.90;1.00
20284;DHT22;10301;50.832;4.080;2023-04-22T15:45:56;16.00;1.00
20284;DHT22;10301;50.832;4.080;2023-04-22T15:48:23;15.80;1.00
20284;DHT22;10301;50.832;4.080;2023-04-22T15:50:49;15.60;1.00